Kailua, Hawaii
Current Conditions -  °F | °C
As of 11:49 AM on Friday 19 Dec 2014 (Local Time) from PHNG Reporting Station
Scattered Clouds Scattered Clouds  
Wind Chill: 80°   Ceiling: Unl
Heat Index: 83°   Visibility: 10mi
Dew Point: 69°   Wind: 9mph
Humidity: 69%   Direction: 80°E
Pressure: 30.1"   Gusts: 21mph
Location:  21.4°N, 157.74°W
Report Text: PHNG 192149Z AUTO 08008G18KT 10SM SCT021 27/21 A3010 RMK AO2 RAE09 P0000 T02670206 $
Loading
Personal Weather Stations






























Interactive Weather Map New forecast layout! Learn more

10-Day Weather Forecast

Advertisements
Track Severe Weather on mobile